Latest Coastal Weather Observations for Centre Island

IDD60701

Issued at 8:41 am CST Friday 3 July 2015 (issued every 10 minutes, with the page automatically refreshed every 10 minutes)

About coastal observations | Map of coastal stations | Coastal observations for NT | Marine services | Other Formats
Station Details ID: 014703 Name: CENTRE ISLAND Lat: -15.74 Lon: 136.82 Height: 12.2 m
Data from the previous 72 hours. | See also: Recent months at Centre Island
Date/Time
CST
Temp

°C
Wind Pressure Rain
since 9am
mm
Weather Cloud Vis
km
Sea
Height
m
Swell
Dir
 
Speed
knots
Gust
knots
hPa Trend Height
m
Period
s
Dir
03/08:30am 20.9 SSE 13 15 1019.0 - 0.0 - - - - - - -
03/08:00am 20.6 SSE 13 15 1018.7 - 0.0 - - - - - - -
03/07:30am 20.3 SSE 14 16 1018.3 - 0.0 - - - - - - -
03/07:00am 20.4 SSE 15 17 1018.0 - 0.0 - - - - - - -
03/06:30am 20.8 SSE 16 20 1017.6 - 0.0 - - - - - - -
03/06:00am 21.3 SSE 17 21 1017.3 - 0.0 - - - - - - -
03/05:30am 21.5 SSE 19 22 1016.9 - 0.0 - - - - - - -
03/05:00am 21.5 SSE 19 22 1016.8 - 0.0 - - - - - - -
03/04:30am 21.6 SSE 16 19 1016.7 - 0.0 - - - - - - -
03/04:00am 21.6 SSE 13 15 1016.6 - 0.0 - - - - - - -
03/03:30am 21.6 SSE 15 17 1016.6 - 0.0 - - - - - - -
03/03:00am 21.5 SSE 15 17 1016.8 - 0.0 - - - - - - -
03/02:30am 21.3 SSE 15 18 1016.9 - 0.0 - - - - - - -
03/02:00am 21.3 SSE 10 12 1017.1 - 0.0 - - - - - - -
03/01:30am 21.1 SSE 9 10 1017.4 - 0.0 - - - - - - -
03/01:00am 21.9 SE 8 10 1017.4 - 0.0 - - - - - - -
03/12:30am 21.5 ESE 5 6 1017.4 - 0.0 - - - - - - -
03/12:00am 21.6 ESE 5 6 1017.5 - 0.0 - - - - - - -
 
Date/Time
CST
Temp

°C
Wind Pressure Rain
since 9am
mm
Weather Cloud Vis
km
Sea
Height
m
Swell
Dir
 
Speed
knots
Gust
knots
hPa Trend Height
m
Period
s
Dir
02/11:30pm 21.8 ESE 6 7 1017.8 - 0.0 - - - - - - -
02/11:00pm 22.1 ESE 7 8 1018.0 - 0.0 - - - - - - -
02/10:30pm 22.4 E 8 9 1018.1 - 0.0 - - - - - - -
02/10:00pm 22.6 E 9 11 1018.1 - 0.0 - - - - - - -
02/09:30pm 22.7 E 10 12 1018.0 - 0.0 - - - - - - -
02/09:00pm 22.9 E 9 11 1017.8 - 0.0 - - - - - - -
02/08:30pm 22.9 E 9 11 1017.7 - 0.0 - - - - - - -
02/08:00pm 23.0 E 8 9 1017.4 - 0.0 - - - - - - -
02/07:30pm 23.1 E 9 13 1017.0 - 0.0 - - - - - - -
02/07:00pm 23.3 E 13 15 1016.6 - 0.0 - - - - - - -
02/06:30pm 23.5 E 13 16 1016.1 - 0.0 - - - - - - -
02/06:00pm 24.0 E 16 19 1015.8 - 0.0 - - - - - - -
02/05:30pm 24.7 E 15 19 1015.6 - 0.0 - - - - - - -
02/05:00pm 25.4 E 17 21 1015.5 - 0.0 - - - - - - -
02/04:30pm 25.9 E 16 19 1015.4 - 0.0 - - - - - - -
02/04:00pm 26.4 E 15 18 1015.4 - 0.0 - - - - - - -
02/03:30pm 27.0 E 16 19 1015.5 - 0.0 - - - - - - -
02/03:00pm 27.7 E 15 17 1015.7 - 0.0 - - - - - - -
02/02:30pm 27.6 E 11 15 1016.1 - 0.0 - - - - - - -
02/02:00pm 28.1 E 13 16 1016.4 - 0.0 - - - - - - -
02/01:30pm 27.9 E 11 13 1016.9 - 0.0 - - - - - - -
02/01:00pm 28.2 E 13 16 1017.4 - 0.0 - - - - - - -
02/12:30pm 28.0 E 17 20 1017.9 - 0.0 - - - - - - -
02/12:00pm 27.4 ESE 17 21 1018.4 - 0.0 - - - - - - -
02/11:30am 27.1 ESE 19 23 1018.8 - 0.0 - - - - - - -
02/11:00am 26.9 ESE 14 16 1019.4 - 0.0 - - - - - - -
02/10:30am 26.2 ESE 9 11 1019.7 - 0.0 - - - - - - -
02/10:00am 25.6 SE 12 13 1019.9 - 0.0 - - - - - - -
02/09:30am 24.8 SE 15 17 1020.0 - 0.0 - - - - - - -
02/09:00am 24.0 SSE 15 18 1020.0 - 0.0 - - - - - - -
02/08:30am 23.3 SSE 15 19 1019.7 - 0.0 - - - - - - -
02/08:00am 22.7 SSE 15 18 1019.3 - 0.0 - - - - - - -
02/07:30am 22.4 SSE 16 19 1018.9 - 0.0 - - - - - - -
02/07:00am 22.1 SSE 14 17 1018.7 - 0.0 - - - - - - -
02/06:30am 22.1 SSE 14 17 1018.4 - 0.0 - - - - - - -
02/06:00am 21.9 S 11 14 1018.2 - 0.0 - - - - - - -
02/05:30am 21.9 SSE 11 13 1017.9 - 0.0 - - - - - - -
02/05:00am 21.7 S 9 12 1017.6 - 0.0 - - - - - - -
02/04:30am 22.0 S 12 15 1017.6 - 0.0 - - - - - - -
02/04:00am 21.9 SSE 9 10 1017.4 - 0.0 - - - - - - -
02/03:30am 22.3 SSE 10 13 1017.5 - 0.0 - - - - - - -
02/03:00am 22.1 SE 9 10 1017.7 - 0.0 - - - - - - -
02/02:30am 22.1 SE 9 10 1017.8 - 0.0 - - - - - - -
02/02:00am 22.1 SE 9 10 1018.1 - 0.0 - - - - - - -
02/01:30am 22.1 SE 9 10 1018.3 - 0.0 - - - - - - -
02/01:00am 22.2 SE 8 9 1018.5 - 0.0 - - - - - - -
02/12:30am 22.2 SE 7 8 1018.6 - 0.0 - - - - - - -
02/12:00am 22.3 SE 7 8 1018.5 - 0.0 - - - - - - -
 
Date/Time
CST
Temp

°C
Wind Pressure Rain
since 9am
mm
Weather Cloud Vis
km
Sea
Height
m
Swell
Dir
 
Speed
knots
Gust
knots
hPa Trend Height
m
Period
s
Dir
01/11:30pm 22.1 SE 5 5 1018.7 - 0.0 - - - - - - -
01/11:00pm 22.0 ESE 4 5 1018.8 - 0.0 - - - - - - -
01/10:30pm 22.1 ESE 4 5 1018.9 - 0.0 - - - - - - -
01/10:00pm 22.2 E 5 5 1019.0 - 0.0 - - - - - - -
01/09:30pm 22.5 E 5 6 1018.9 - 0.0 - - - - - - -
01/09:00pm 22.8 E 5 6 1018.8 - 0.0 - - - - - - -
01/08:30pm 23.0 E 5 7 1018.5 - 0.0 - - - - - - -
01/08:00pm 23.0 E 6 7 1018.2 - 0.0 - - - - - - -
01/07:30pm 23.3 ENE 10 12 1017.9 - 0.0 - - - - - - -
01/07:00pm 23.5 E 11 14 1017.6 - 0.0 - - - - - - -
01/06:30pm 23.7 E 9 11 1017.4 - 0.0 - - - - - - -
01/06:00pm 24.1 E 10 13 1017.3 - 0.0 - - - - - - -
01/05:30pm 24.6 E 12 15 1017.1 - 0.0 - - - - - - -
01/05:00pm 25.6 E 14 17 1016.9 - 0.0 - - - - - - -
01/04:30pm 26.0 E 11 14 1016.7 - 0.0 - - - - - - -
01/04:00pm 26.2 ESE 13 15 1016.7 - 0.0 - - - - - - -
01/03:30pm 26.2 ESE 15 19 1016.7 - 0.0 - - - - - - -
01/03:00pm 26.4 ESE 13 16 1016.9 - 0.0 - - - - - - -
01/02:30pm 26.4 ESE 15 17 1017.2 - 0.0 - - - - - - -
01/02:00pm 26.4 ESE 18 20 1017.6 - 0.0 - - - - - - -
01/01:30pm 27.7 ESE 15 20 1018.1 - 0.0 - - - - - - -
01/01:00pm 27.7 ESE 15 17 1018.5 - 0.0 - - - - - - -
01/12:30pm 26.1 ESE 15 17 1019.1 - 0.0 - - - - - - -
01/12:00pm 26.7 ESE 15 18 1019.4 - 0.0 - - - - - - -
01/11:30am 26.1 ESE 15 18 1019.7 - 0.0 - - - - - - -
01/11:00am 26.1 ESE 13 15 1020.0 - 0.0 - - - - - - -
01/10:30am 24.6 SE 16 19 1020.2 - 0.0 - - - - - - -
01/10:00am 24.4 SE 15 16 1020.3 - 0.0 - - - - - - -
01/09:30am 23.1 SE 14 17 1020.2 - 0.0 - - - - - - -
01/09:00am 22.6 SE 15 17 1020.2 - 0.2 - - - - - - -
01/08:30am 22.2 SE 17 21 1020.0 - 0.2 - - - - - - -
01/08:00am 21.7 SE 16 19 1019.6 - 0.2 - - - - - - -
01/07:30am 22.9 SE 14 16 1019.3 - 0.0 - - - - - - -
01/07:00am 22.8 SE 15 17 1018.8 - 0.0 - - - - - - -
01/06:30am 22.8 SE 13 15 1018.4 - 0.0 - - - - - - -
01/06:00am 22.7 SE 11 13 1018.1 - 0.0 - - - - - - -
01/05:30am 22.6 SE 12 14 1017.8 - 0.0 - - - - - - -
01/05:00am 22.6 SE 11 13 1017.5 - 0.0 - - - - - - -
01/04:30am 22.5 SE 11 13 1017.4 - 0.0 - - - - - - -
01/04:00am 22.5 SE 12 14 1017.3 - 0.0 - - - - - - -
01/03:30am 22.3 SE 10 11 1017.2 - 0.0 - - - - - - -
01/03:00am 22.1 SE 9 11 1017.4 - 0.0 - - - - - - -
01/02:30am 22.1 SE 9 11 1017.4 - 0.0 - - - - - - -
01/02:00am 22.2 SE 9 9 1017.5 - 0.0 - - - - - - -
01/01:30am 22.3 SE 9 10 1017.6 - 0.0 - - - - - - -
01/01:00am 22.4 SE 9 10 1017.7 - 0.0 - - - - - - -
01/12:30am 22.4 SE 8 9 1017.7 - 0.0 - - - - - - -
01/12:00am 22.5 ESE 10 12 1017.7 - 0.0 - - - - - - -
 
Date/Time
CST
Temp

°C
Wind Pressure Rain
since 9am
mm
Weather Cloud Vis
km
Sea
Height
m
Swell
Dir
 
Speed
knots
Gust
knots
hPa Trend Height
m
Period
s
Dir
30/11:30pm 22.4 ESE 12 13 1017.8 - 0.0 - - - - - - -
30/11:00pm 22.5 ESE 12 13 1017.8 - 0.0 - - - - - - -
30/10:30pm 22.6 ESE 12 13 1017.8 - 0.0 - - - - - - -
30/10:00pm 22.7 ESE 11 12 1017.9 - 0.0 - - - - - - -
30/09:30pm 22.9 ESE 11 13 1017.8 - 0.0 - - - - - - -
30/09:00pm 23.0 ESE 12 15 1017.6 - 0.0 - - - - - - -
30/08:30pm 23.2 E 12 14 1017.4 - 0.0 - - - - - - -
30/08:00pm 23.2 E 14 17 1017.1 - 0.0 - - - - - - -
30/07:30pm 23.3 E 12 15 1016.8 - 0.0 - - - - - - -
30/07:00pm 23.4 E 10 13 1016.4 - 0.0 - - - - - - -
30/06:30pm 23.6 ENE 11 15 1016.1 - 0.0 - - - - - - -
30/06:00pm 24.0 ENE 10 13 1015.7 - 0.0 - - - - - - -
30/05:30pm 24.7 ENE 9 11 1015.3 - 0.0 - - - - - - -
30/05:00pm 25.7 ENE 11 14 1015.1 - 0.0 - - - - - - -
30/04:30pm 26.5 ENE 11 14 1014.9 - 0.0 - - - - - - -
30/04:00pm 26.8 ENE 11 13 1014.7 - 0.0 - - - - - - -
30/03:30pm 26.9 ENE 14 17 1014.7 - 0.0 - - - - - - -
30/03:00pm 27.3 E 13 15 1014.9 - 0.0 - - - - - - -
30/02:30pm 27.4 E 14 17 1015.2 - 0.0 - - - - - - -
30/02:00pm 27.5 E 13 16 1015.5 - 0.0 - - - - - - -
30/01:30pm 27.6 E 16 19 1015.8 - 0.0 - - - - - - -
30/01:00pm 27.0 E 16 19 1016.4 - 0.0 - - - - - - -
30/12:30pm 26.4 ESE 15 19 1016.7 - 0.0 - - - - - - -
30/12:00pm 25.6 ESE 17 19 1017.2 - 0.0 - - - - - - -
30/11:30am 25.7 ESE 17 21 1017.3 - 0.0 - - - - - - -
30/11:00am 25.9 ESE 16 19 1017.6 - 0.0 - - - - - - -
30/10:30am 26.0 ESE 16 19 1017.7 - 0.0 - - - - - - -
30/10:25am 26.1 ESE 15 19 1017.7 - 0.0 - - - - - - -
30/10:00am 25.9 SE 7 9 1017.8 - 0.0 - - - - - - -
30/09:30am 24.6 S 6 8 1017.8 - 0.0 - - - - - - -
30/09:00am 24.1 SSW 6 8 1017.8 - 0.0 - - - - - - -

Other Formats:

Comma delimited format used in spreadsheet applications
http://www.bom.gov.au/fwo/IDD60701/IDD60701.94248.axf

JavaScript Object Notation format (JSON) in row-major order
http://www.bom.gov.au/fwo/IDD60701/IDD60701.94248.json